createdAt,value
2022-09-14T00:00:23.407Z,100.00
2022-09-14T00:02:51.281Z,100.00
2022-09-14T00:05:18.935Z,100.00
2022-09-14T00:07:46.481Z,100.00
2022-09-14T00:10:15.352Z,100.00
2022-09-14T00:12:42.910Z,100.00
2022-09-14T00:15:11.141Z,100.00
2022-09-14T00:17:38.679Z,100.00
2022-09-14T00:20:07.556Z,100.00
2022-09-14T00:22:35.100Z,100.00
2022-09-14T00:25:02.635Z,100.00
2022-09-14T00:27:31.517Z,100.00
2022-09-14T00:29:59.075Z,100.00
2022-09-14T00:32:26.575Z,100.00
2022-09-14T00:34:54.084Z,100.00
2022-09-14T00:37:21.595Z,100.00
2022-09-14T00:39:50.314Z,100.00
2022-09-14T00:42:19.563Z,100.00
2022-09-14T00:45:03.139Z,100.00
2022-09-14T00:47:32.611Z,100.00
2022-09-14T00:50:02.177Z,100.00
2022-09-14T00:52:32.741Z,100.00
2022-09-14T00:55:01.969Z,100.00
2022-09-14T00:57:32.290Z,100.00
2022-09-14T01:00:01.409Z,100.00
2022-09-14T01:02:29.656Z,100.00
2022-09-14T01:04:57.379Z,100.00
2022-09-14T01:07:38.382Z,100.00
2022-09-14T01:10:15.515Z,100.00
2022-09-14T01:12:50.900Z,100.00
2022-09-14T01:15:26.278Z,100.00
2022-09-14T01:17:58.342Z,100.00
2022-09-14T01:20:30.984Z,100.00
2022-09-14T01:23:03.816Z,100.00
2022-09-14T01:26:07.882Z,100.00
2022-09-14T01:28:41.915Z,100.00
2022-09-14T01:31:13.275Z,100.00
2022-09-14T01:33:43.487Z,100.00
2022-09-14T01:36:12.772Z,100.00
2022-09-14T01:38:43.295Z,100.00
2022-09-14T01:41:13.444Z,100.00
2022-09-14T01:43:45.227Z,100.00
2022-09-14T01:46:15.731Z,100.00
2022-09-14T01:48:47.168Z,100.00
2022-09-14T01:51:19.091Z,100.00
2022-09-14T01:53:49.138Z,100.00
2022-09-14T01:56:20.723Z,100.00
2022-09-14T01:58:52.682Z,100.00
2022-09-14T02:01:24.452Z,100.00
2022-09-14T02:03:55.481Z,100.00
2022-09-14T02:06:27.495Z,100.00
2022-09-14T02:08:55.379Z,100.00
2022-09-14T02:11:23.016Z,100.00
2022-09-14T02:13:51.922Z,100.00
2022-09-14T02:16:20.749Z,100.00
2022-09-14T02:18:48.340Z,100.00
2022-09-14T02:21:18.495Z,100.00
2022-09-14T02:23:46.048Z,100.00
2022-09-14T02:26:13.835Z,100.00
2022-09-14T02:28:41.378Z,100.00
2022-09-14T02:31:18.839Z,100.00
2022-09-14T02:33:52.080Z,100.00
2022-09-14T02:36:29.689Z,100.00
2022-09-14T02:39:02.453Z,100.00
2022-09-14T02:41:39.663Z,100.00
2022-09-14T02:44:13.593Z,100.00
2022-09-14T02:46:46.916Z,100.00
2022-09-14T02:49:19.568Z,100.00
2022-09-14T02:51:50.961Z,100.00
2022-09-14T02:54:20.423Z,100.00
2022-09-14T02:56:48.279Z,100.00
2022-09-14T02:59:15.855Z,100.00
2022-09-14T03:01:45.116Z,100.00
2022-09-14T03:04:12.679Z,100.00
2022-09-14T03:06:40.185Z,100.00
2022-09-14T03:09:07.700Z,100.00
2022-09-14T03:11:35.228Z,100.00
2022-09-14T03:14:02.715Z,100.00
2022-09-14T03:16:30.267Z,100.00
2022-09-14T03:18:59.123Z,100.00
2022-09-14T03:21:26.653Z,100.00
2022-09-14T03:23:55.074Z,100.00
2022-09-14T03:26:24.327Z,100.00
2022-09-14T03:28:52.425Z,100.00
2022-09-14T03:31:20.408Z,100.00
2022-09-14T03:33:48.648Z,100.00
2022-09-14T03:36:18.968Z,100.00
2022-09-14T03:38:47.718Z,100.00
2022-09-14T03:41:15.996Z,100.00
2022-09-14T03:43:44.119Z,100.00
2022-09-14T03:46:13.468Z,100.00
2022-09-14T03:48:41.567Z,100.00
2022-09-14T03:51:10.441Z,100.00
2022-09-14T03:53:39.656Z,100.00
2022-09-14T03:56:08.703Z,100.00
2022-09-14T03:58:36.216Z,100.00
2022-09-14T04:01:07.555Z,100.00
2022-09-14T04:03:35.348Z,100.00
2022-09-14T04:06:05.327Z,100.00
2022-09-14T04:08:33.376Z,100.00
2022-09-14T04:11:02.531Z,100.00
2022-09-14T04:13:30.011Z,100.00
2022-09-14T04:15:59.042Z,100.00
2022-09-14T04:18:27.239Z,100.00
2022-09-14T04:20:56.397Z,100.00
2022-09-14T04:23:23.991Z,100.00
2022-09-14T04:25:51.623Z,100.00
2022-09-14T04:28:21.105Z,100.00
2022-09-14T04:30:56.309Z,100.00
2022-09-14T04:33:24.053Z,100.00
2022-09-14T04:35:59.432Z,100.00
2022-09-14T04:38:27.128Z,100.00
2022-09-14T04:40:54.635Z,100.00
2022-09-14T04:43:23.551Z,100.00
2022-09-14T04:45:51.379Z,100.00
2022-09-14T04:48:19.216Z,100.00
2022-09-14T04:50:47.119Z,100.00
2022-09-14T04:53:14.607Z,100.00
2022-09-14T04:55:42.087Z,100.00
2022-09-14T04:58:09.639Z,100.00
2022-09-14T05:00:38.542Z,100.00
2022-09-14T05:03:06.583Z,100.00
2022-09-14T05:05:40.026Z,100.00
2022-09-14T05:08:10.572Z,100.00
2022-09-14T05:10:38.074Z,100.00
2022-09-14T05:13:05.563Z,100.00
2022-09-14T05:15:33.076Z,100.00
2022-09-14T05:18:02.801Z,100.00
2022-09-14T05:20:30.356Z,100.00
2022-09-14T05:22:57.848Z,100.00
2022-09-14T05:25:25.858Z,100.00
2022-09-14T05:27:53.384Z,100.00
2022-09-14T05:30:20.973Z,100.00
2022-09-14T05:32:48.480Z,100.00
2022-09-14T05:35:17.489Z,100.00
2022-09-14T05:37:44.992Z,100.00
2022-09-14T05:40:12.635Z,100.00
2022-09-14T05:42:40.218Z,100.00
2022-09-14T05:45:08.775Z,100.00
2022-09-14T05:47:39.143Z,100.00
2022-09-14T05:50:08.770Z,100.00
2022-09-14T05:52:37.632Z,100.00
2022-09-14T05:55:05.946Z,100.00
2022-09-14T05:57:33.739Z,100.00
2022-09-14T06:00:01.276Z,100.00
2022-09-14T06:02:28.833Z,100.00
2022-09-14T06:04:56.786Z,100.00
2022-09-14T06:07:24.400Z,100.00
2022-09-14T06:09:53.255Z,100.00
2022-09-14T06:12:20.841Z,100.00
2022-09-14T06:14:48.340Z,100.00
2022-09-14T06:17:15.842Z,100.00
2022-09-14T06:19:43.351Z,100.00
2022-09-14T06:22:10.907Z,100.00
2022-09-14T06:24:38.423Z,100.00
2022-09-14T06:27:08.890Z,100.00
2022-09-14T06:29:36.622Z,100.00
2022-09-14T06:32:04.382Z,100.00
2022-09-14T06:34:31.902Z,100.00
2022-09-14T06:36:59.410Z,100.00
2022-09-14T06:39:26.910Z,100.00
2022-09-14T06:41:54.428Z,100.00
2022-09-14T06:44:23.284Z,100.00
2022-09-14T06:46:50.776Z,100.00
2022-09-14T06:49:20.686Z,100.00
2022-09-14T06:51:48.391Z,100.00
2022-09-14T06:54:16.652Z,100.00
2022-09-14T06:56:45.335Z,100.00
2022-09-14T06:59:14.998Z,100.00
2022-09-14T07:01:45.260Z,100.00
2022-09-14T07:04:14.244Z,100.00
2022-09-14T07:06:43.858Z,100.00
2022-09-14T07:09:11.871Z,100.00
2022-09-14T07:11:40.007Z,100.00
2022-09-14T07:14:08.161Z,100.00
2022-09-14T07:16:36.881Z,100.00
2022-09-14T07:19:07.156Z,100.00
2022-09-14T07:21:35.414Z,100.00
2022-09-14T07:24:03.434Z,100.00
2022-09-14T07:26:32.322Z,100.00
2022-09-14T07:29:01.924Z,100.00
2022-09-14T07:31:32.255Z,100.00
2022-09-14T07:34:03.277Z,100.00
2022-09-14T07:36:35.121Z,100.00
2022-09-14T07:39:03.523Z,100.00
2022-09-14T07:41:32.145Z,100.00
2022-09-14T07:44:00.940Z,100.00
2022-09-14T07:46:29.061Z,100.00
2022-09-14T07:48:57.976Z,100.00
2022-09-14T07:51:26.075Z,100.00
2022-09-14T07:53:55.353Z,93.05
2022-09-14T07:56:22.990Z,93.58
2022-09-14T07:58:55.428Z,88.72
2022-09-14T08:01:24.984Z,85.48
2022-09-14T08:03:52.555Z,87.51
2022-09-14T08:06:21.408Z,84.82
2022-09-14T08:08:50.810Z,85.56
2022-09-14T08:11:21.770Z,87.40
2022-09-14T08:13:52.012Z,85.99
2022-09-14T08:16:20.328Z,86.15
2022-09-14T08:18:48.575Z,85.94
2022-09-14T08:21:17.650Z,81.16
2022-09-14T08:23:45.731Z,79.70
2022-09-14T08:26:16.212Z,75.26
2022-09-14T08:28:45.658Z,72.14
2022-09-14T08:31:15.187Z,66.39
2022-09-14T08:33:45.329Z,71.22
2022-09-14T08:36:15.837Z,72.47
2022-09-14T08:38:43.449Z,70.59
2022-09-14T08:41:18.080Z,67.27
2022-09-14T08:43:47.181Z,68.14
2022-09-14T08:46:24.015Z,63.90
2022-09-14T08:48:51.568Z,66.35
2022-09-14T08:51:19.067Z,65.63
2022-09-14T08:53:46.651Z,70.74
2022-09-14T08:56:17.137Z,64.28
2022-09-14T08:58:56.061Z,64.64
2022-09-14T09:01:35.915Z,61.18
2022-09-14T09:04:17.374Z,63.17
2022-09-14T09:06:48.946Z,60.61
2022-09-14T09:09:22.767Z,59.50
2022-09-14T09:11:52.204Z,59.57
2022-09-14T09:14:25.084Z,58.89
2022-09-14T09:16:55.550Z,58.18
2022-09-14T09:19:28.785Z,57.46
2022-09-14T09:21:56.783Z,58.20
2022-09-14T09:24:28.440Z,62.84
2022-09-14T09:26:55.999Z,59.12
2022-09-14T09:29:24.939Z,59.17
2022-09-14T09:31:54.532Z,65.15
2022-09-14T09:34:26.947Z,61.08
2022-09-14T09:36:55.821Z,59.48
2022-09-14T09:39:25.823Z,60.19
2022-09-14T09:41:57.597Z,60.00
2022-09-14T09:44:26.475Z,59.75
2022-09-14T09:46:56.313Z,62.13
2022-09-14T09:49:26.806Z,60.22
2022-09-14T09:51:54.596Z,59.68
2022-09-14T09:54:30.097Z,58.95
2022-09-14T09:56:59.635Z,59.72
2022-09-14T09:59:35.165Z,57.22
2022-09-14T10:02:22.811Z,57.51
2022-09-14T10:04:59.370Z,59.40
2022-09-14T10:07:28.144Z,54.06
2022-09-14T10:10:00.933Z,55.56
2022-09-14T10:12:29.318Z,55.58
2022-09-14T10:15:16.535Z,58.93
2022-09-14T10:17:58.112Z,55.75
2022-09-14T10:20:26.676Z,55.91
2022-09-14T10:22:54.282Z,57.18
2022-09-14T10:25:24.067Z,58.13
2022-09-14T10:27:59.331Z,58.66
2022-09-14T10:30:29.476Z,63.40
2022-09-14T10:33:00.239Z,59.64
2022-09-14T10:35:34.278Z,57.33
2022-09-14T10:38:12.094Z,54.56
2022-09-14T10:40:43.714Z,58.00
2022-09-14T10:43:15.391Z,60.65
2022-09-14T10:45:49.624Z,65.25
2022-09-14T10:48:36.546Z,62.65
2022-09-14T10:51:18.718Z,67.25
2022-09-14T10:53:51.513Z,67.10
2022-09-14T10:56:20.995Z,61.96
2022-09-14T10:59:13.466Z,64.82
2022-09-14T11:01:55.334Z,60.79
2022-09-14T11:04:46.820Z,62.66
2022-09-14T11:07:22.447Z,62.90
2022-09-14T11:09:55.075Z,60.23
2022-09-14T11:12:25.797Z,58.63
2022-09-14T11:15:01.926Z,52.54
2022-09-14T11:17:50.800Z,51.17
2022-09-14T11:20:26.503Z,52.60
2022-09-14T11:23:00.654Z,55.56
2022-09-14T11:25:33.367Z,55.08
2022-09-14T11:28:04.800Z,63.69
2022-09-14T11:30:35.427Z,64.62
2022-09-14T11:33:08.868Z,63.55
2022-09-14T11:35:39.911Z,65.18
2022-09-14T11:38:12.335Z,65.12
2022-09-14T11:40:44.445Z,63.78
2022-09-14T11:43:15.039Z,62.40
2022-09-14T11:45:46.075Z,63.54
2022-09-14T11:48:41.940Z,65.13
2022-09-14T11:51:16.234Z,65.08
2022-09-14T11:53:44.707Z,60.85
2022-09-14T11:56:24.432Z,55.18
2022-09-14T11:58:52.031Z,56.51
2022-09-14T12:01:29.483Z,60.42
2022-09-14T12:04:14.146Z,60.63
2022-09-14T12:06:54.754Z,63.34
2022-09-14T12:09:46.260Z,59.90
2022-09-14T12:12:37.867Z,55.07
2022-09-14T12:15:15.434Z,59.56
2022-09-14T12:17:44.476Z,62.92
2022-09-14T12:20:31.225Z,62.17
2022-09-14T12:23:07.550Z,60.05
2022-09-14T12:25:35.776Z,60.81
2022-09-14T12:28:03.755Z,62.18
2022-09-14T12:31:10.668Z,63.11
2022-09-14T12:33:46.079Z,60.60
2022-09-14T12:36:53.493Z,61.48
2022-09-14T12:39:23.282Z,62.74
2022-09-14T12:42:02.828Z,61.57
2022-09-14T12:44:36.138Z,64.10
2022-09-14T12:47:41.173Z,65.70
2022-09-14T12:50:14.555Z,65.01
2022-09-14T12:53:06.808Z,65.12
2022-09-14T12:55:46.056Z,61.15
2022-09-14T12:58:26.366Z,61.73
2022-09-14T13:01:01.844Z,60.31
2022-09-14T13:03:53.226Z,62.00
2022-09-14T13:06:21.809Z,61.05
2022-09-14T13:08:55.200Z,64.19
2022-09-14T13:11:26.516Z,60.69
2022-09-14T13:13:54.164Z,58.71
2022-09-14T13:16:29.471Z,60.61
2022-09-14T13:19:02.623Z,55.50
2022-09-14T13:21:30.179Z,53.22
2022-09-14T13:23:59.060Z,54.68
2022-09-14T13:26:27.907Z,56.39
2022-09-14T13:28:56.785Z,55.60
2022-09-14T13:31:29.464Z,57.19
2022-09-14T13:33:57.245Z,59.09
2022-09-14T13:36:26.505Z,59.29
2022-09-14T13:38:54.447Z,58.93
2022-09-14T13:41:24.354Z,56.87
2022-09-14T13:43:55.331Z,57.47
2022-09-14T13:46:23.714Z,57.53
2022-09-14T13:48:52.110Z,57.69
2022-09-14T13:51:25.129Z,56.44
2022-09-14T13:53:54.402Z,54.93
2022-09-14T13:56:26.651Z,49.06
2022-09-14T13:59:20.628Z,48.53
2022-09-14T14:01:57.562Z,47.43
2022-09-14T14:04:33.552Z,49.42
2022-09-14T14:07:14.696Z,50.26
2022-09-14T14:09:45.478Z,54.15
2022-09-14T14:12:25.819Z,55.58
2022-09-14T14:14:55.080Z,55.81
2022-09-14T14:17:34.228Z,57.51
2022-09-14T14:20:35.387Z,55.55
2022-09-14T14:23:19.949Z,57.46
2022-09-14T14:25:49.411Z,54.17
2022-09-14T14:28:23.238Z,54.95
2022-09-14T14:30:50.950Z,53.87
2022-09-14T14:33:20.091Z,52.61
2022-09-14T14:35:48.283Z,51.42
2022-09-14T14:38:16.630Z,56.16
2022-09-14T14:40:45.603Z,55.68
2022-09-14T14:43:19.511Z,54.58
2022-09-14T14:45:47.193Z,56.22
2022-09-14T14:48:14.974Z,56.06
2022-09-14T14:50:42.527Z,57.55
2022-09-14T14:53:10.053Z,58.46
2022-09-14T14:55:37.590Z,57.19
2022-09-14T14:58:09.739Z,56.92
2022-09-14T15:00:39.308Z,55.31
2022-09-14T15:03:06.971Z,57.15
2022-09-14T15:05:34.642Z,55.26
2022-09-14T15:08:02.244Z,54.51
2022-09-14T15:10:30.624Z,56.12
2022-09-14T15:12:58.263Z,52.61
2022-09-14T15:15:27.118Z,52.44
2022-09-14T15:17:55.994Z,51.12
2022-09-14T15:20:24.159Z,51.82
2022-09-14T15:22:51.943Z,53.10
2022-09-14T15:25:21.278Z,53.45
2022-09-14T15:27:49.188Z,52.13
2022-09-14T15:30:17.074Z,51.79
2022-09-14T15:32:44.598Z,51.97
2022-09-14T15:35:15.340Z,51.78
2022-09-14T15:37:43.250Z,51.24
2022-09-14T15:40:11.722Z,51.31
2022-09-14T15:42:39.287Z,52.65
2022-09-14T15:45:09.033Z,53.21
2022-09-14T15:47:36.875Z,55.28
2022-09-14T15:50:05.303Z,55.74
2022-09-14T15:52:35.904Z,55.79
2022-09-14T15:55:03.592Z,55.24
2022-09-14T15:57:31.092Z,57.09
2022-09-14T15:59:58.703Z,57.67
2022-09-14T16:02:26.400Z,55.74
2022-09-14T16:04:53.975Z,55.35
2022-09-14T16:07:21.492Z,57.91
2022-09-14T16:09:50.331Z,61.20
2022-09-14T16:12:17.806Z,57.92
2022-09-14T16:14:45.315Z,59.15
2022-09-14T16:17:12.846Z,60.31
2022-09-14T16:19:40.347Z,60.57
2022-09-14T16:22:08.095Z,62.41
2022-09-14T16:24:35.731Z,63.78
2022-09-14T16:27:04.700Z,65.33
2022-09-14T16:29:32.186Z,64.39
2022-09-14T16:31:59.742Z,61.76
2022-09-14T16:34:28.844Z,60.54
2022-09-14T16:36:58.459Z,61.64
2022-09-14T16:39:28.436Z,61.28
2022-09-14T16:41:56.642Z,62.55
2022-09-14T16:44:27.716Z,62.11
2022-09-14T16:46:57.505Z,63.03
2022-09-14T16:49:27.935Z,64.64
2022-09-14T16:51:56.180Z,67.24
2022-09-14T16:54:25.351Z,66.62
2022-09-14T16:56:55.967Z,66.88
2022-09-14T16:59:25.444Z,67.16
2022-09-14T17:01:54.998Z,66.57
2022-09-14T17:04:23.828Z,66.01
2022-09-14T17:06:51.998Z,66.52
2022-09-14T17:09:21.312Z,67.97
2022-09-14T17:11:49.455Z,69.23
2022-09-14T17:14:18.857Z,69.66
2022-09-14T17:16:48.368Z,71.15
2022-09-14T17:19:16.468Z,72.67
2022-09-14T17:21:45.163Z,73.56
2022-09-14T17:24:13.904Z,75.32
2022-09-14T17:26:41.990Z,76.76
2022-09-14T17:29:09.978Z,77.46
2022-09-14T17:31:40.611Z,79.49
2022-09-14T17:34:11.345Z,79.17
2022-09-14T17:36:39.301Z,79.66
2022-09-14T17:39:11.579Z,80.64
2022-09-14T17:41:40.396Z,80.07
2022-09-14T17:44:08.983Z,81.37
2022-09-14T17:46:41.462Z,81.89
2022-09-14T17:49:15.961Z,83.01
2022-09-14T17:51:45.082Z,84.79
2022-09-14T17:54:13.278Z,85.42
2022-09-14T17:56:41.288Z,86.12
2022-09-14T17:59:11.713Z,89.01
2022-09-14T18:01:39.374Z,92.04
2022-09-14T18:04:08.764Z,95.11
2022-09-14T18:06:39.232Z,96.91
2022-09-14T18:09:08.809Z,99.17
2022-09-14T18:11:36.679Z,99.11
2022-09-14T18:14:05.274Z,100.00
2022-09-14T18:16:33.524Z,100.00
2022-09-14T18:19:01.464Z,100.00
2022-09-14T18:21:29.080Z,100.00
2022-09-14T18:23:58.255Z,100.00
2022-09-14T18:26:26.164Z,100.00
2022-09-14T18:28:55.933Z,100.00
2022-09-14T18:31:23.897Z,100.00
2022-09-14T18:33:52.763Z,100.00
2022-09-14T18:36:20.920Z,100.00
2022-09-14T18:38:49.331Z,100.00
2022-09-14T18:41:18.577Z,100.00
2022-09-14T18:43:47.546Z,100.00
2022-09-14T18:46:16.175Z,100.00
2022-09-14T18:48:44.614Z,100.00
2022-09-14T18:51:13.015Z,100.00
2022-09-14T18:53:40.897Z,100.00
2022-09-14T18:56:10.003Z,100.00
2022-09-14T18:58:44.447Z,100.00
2022-09-14T19:01:12.819Z,100.00
2022-09-14T19:03:41.624Z,100.00
2022-09-14T19:06:10.901Z,100.00
2022-09-14T19:08:38.785Z,100.00
2022-09-14T19:11:07.164Z,100.00
2022-09-14T19:13:34.899Z,100.00
2022-09-14T19:16:07.819Z,100.00
2022-09-14T19:18:35.590Z,100.00
2022-09-14T19:21:07.411Z,100.00
2022-09-14T19:23:35.104Z,100.00
2022-09-14T19:26:04.692Z,100.00
2022-09-14T19:28:33.332Z,100.00
2022-09-14T19:31:01.020Z,100.00
2022-09-14T19:33:31.510Z,100.00
2022-09-14T19:36:03.374Z,100.00
2022-09-14T19:38:30.931Z,100.00
2022-09-14T19:40:58.440Z,100.00
2022-09-14T19:43:25.967Z,100.00
2022-09-14T19:45:53.538Z,100.00
2022-09-14T19:48:21.079Z,100.00
2022-09-14T19:50:49.944Z,100.00
2022-09-14T19:53:17.426Z,100.00
2022-09-14T19:55:44.971Z,100.00
2022-09-14T19:58:12.625Z,100.00
2022-09-14T20:00:40.147Z,100.00
2022-09-14T20:03:08.212Z,100.00
2022-09-14T20:05:35.845Z,100.00
2022-09-14T20:08:04.835Z,100.00
2022-09-14T20:10:32.352Z,100.00
2022-09-14T20:12:59.829Z,100.00
2022-09-14T20:15:29.448Z,100.00
2022-09-14T20:17:57.120Z,100.00
2022-09-14T20:20:24.929Z,100.00
2022-09-14T20:22:52.438Z,100.00
2022-09-14T20:25:21.364Z,100.00
2022-09-14T20:27:48.934Z,100.00
2022-09-14T20:30:16.450Z,100.00
2022-09-14T20:32:43.978Z,100.00
2022-09-14T20:35:11.471Z,100.00
2022-09-14T20:37:38.971Z,100.00
2022-09-14T20:40:09.609Z,100.00
2022-09-14T20:42:38.628Z,100.00
2022-09-14T20:45:06.973Z,100.00
2022-09-14T20:47:34.486Z,100.00
2022-09-14T20:50:01.983Z,100.00
2022-09-14T20:52:29.494Z,100.00
2022-09-14T20:54:56.994Z,100.00
2022-09-14T20:57:24.495Z,100.00
2022-09-14T20:59:53.348Z,100.00
2022-09-14T21:02:20.965Z,100.00
2022-09-14T21:04:48.552Z,100.00
2022-09-14T21:07:16.381Z,100.00
2022-09-14T21:09:43.989Z,100.00
2022-09-14T21:12:13.988Z,100.00
2022-09-14T21:14:42.364Z,100.00
2022-09-14T21:17:11.380Z,100.00
2022-09-14T21:19:39.064Z,100.00
2022-09-14T21:22:07.714Z,100.00
2022-09-14T21:24:36.134Z,100.00
2022-09-14T21:27:04.681Z,100.00
2022-09-14T21:29:32.384Z,100.00
2022-09-14T21:31:59.932Z,100.00
2022-09-14T21:34:29.005Z,100.00
2022-09-14T21:36:56.532Z,100.00
2022-09-14T21:39:26.964Z,100.00
2022-09-14T21:41:59.161Z,100.00
2022-09-14T21:44:30.856Z,100.00
2022-09-14T21:46:58.527Z,100.00
2022-09-14T21:49:26.079Z,100.00
2022-09-14T21:51:54.963Z,100.00
2022-09-14T21:54:22.484Z,100.00
2022-09-14T21:56:50.032Z,100.00
2022-09-14T21:59:19.733Z,100.00
2022-09-14T22:01:47.884Z,100.00
2022-09-14T22:04:16.598Z,100.00
2022-09-14T22:06:45.443Z,100.00
2022-09-14T22:09:15.900Z,100.00
2022-09-14T22:11:43.879Z,100.00
2022-09-14T22:14:13.043Z,100.00
2022-09-14T22:16:41.304Z,100.00
2022-09-14T22:19:13.634Z,100.00
2022-09-14T22:21:41.323Z,100.00
2022-09-14T22:24:12.015Z,100.00
2022-09-14T22:26:41.243Z,100.00
2022-09-14T22:29:09.716Z,100.00
2022-09-14T22:31:39.334Z,100.00
2022-09-14T22:34:06.875Z,100.00
2022-09-14T22:36:34.400Z,100.00
2022-09-14T22:39:01.959Z,100.00
2022-09-14T22:41:29.787Z,100.00
2022-09-14T22:43:58.714Z,100.00
2022-09-14T22:46:26.621Z,100.00
2022-09-14T22:48:54.641Z,100.00
2022-09-14T22:51:23.981Z,100.00
2022-09-14T22:53:52.587Z,100.00
2022-09-14T22:56:22.232Z,100.00
2022-09-14T22:58:49.969Z,100.00
2022-09-14T23:01:20.481Z,100.00
2022-09-14T23:03:48.023Z,100.00
2022-09-14T23:06:15.681Z,100.00
2022-09-14T23:08:43.203Z,100.00
2022-09-14T23:11:12.450Z,100.00
2022-09-14T23:13:41.220Z,100.00
2022-09-14T23:16:13.180Z,100.00
2022-09-14T23:18:42.285Z,100.00
2022-09-14T23:21:10.250Z,100.00
2022-09-14T23:23:39.048Z,100.00
2022-09-14T23:26:08.715Z,100.00
2022-09-14T23:28:36.886Z,100.00
2022-09-14T23:31:05.089Z,100.00
2022-09-14T23:33:32.653Z,100.00
2022-09-14T23:36:01.509Z,100.00
2022-09-14T23:38:29.181Z,100.00
2022-09-14T23:40:58.389Z,100.00
2022-09-14T23:43:25.888Z,100.00
2022-09-14T23:45:53.761Z,100.00
2022-09-14T23:48:21.254Z,100.00
2022-09-14T23:50:57.475Z,100.00
2022-09-14T23:53:26.849Z,100.00
2022-09-14T23:55:54.637Z,100.00
2022-09-14T23:58:22.165Z,100.00
